Flight Track Log - Related Links

Times and Time Zones

All times are in EDT time to prevent confusion due to time zone crossing. See the PDT4226 flight status page for this flight to view local times or setup timezone preferences in your user account.

Time Position Orientation Groundspeed Altitude Reporting Facility
EDT Latitude Longitude Course Direction KTS MPH feet Rate Location/Type
Sat 12:20:40 PM 39.8833 -75.2000 351° North 117 135 700  Level Philadelphia TRACON
Sat 12:21:23 PM 39.9000 -75.1833 37° Northeast 123 142 1,600 1,107 Climbing Philadelphia TRACON
Sat 12:22:23 PM 39.9500 -75.2000 346° North 168 193 2,600 1,000 Climbing Philadelphia TRACON
Sat 12:23:00 PM 40.0623 -75.2990 348° North  Level Estimated
Sat 12:23:23 PM 40.0000 -75.2167 346° North 182 209 3,600  Level Philadelphia TRACON
Sat 12:24:00 PM 40.1265 -75.3129 351° North  Level FlightAware Approximate
Sat 12:24:23 PM 40.0500 -75.2167 360° North 217 250 4,000  Level Philadelphia TRACON
Sat 12:25:00 PM 40.1907 -75.3268 351° North  Level FlightAware Approximate
Sat 12:25:23 PM 40.1167 -75.2333 349° North 232 267 4,000  Level Philadelphia TRACON
Sat 12:26:00 PM 40.2548 -75.3408 351° North  Level FlightAware Approximate
Sat 12:26:29 PM 40.1833 -75.2667 339° North 237 273 4,000  Level Philadelphia TRACON
Sat 12:27:23 PM 40.2333 -75.3000 333° Northwest 235 270 4,000  Level Philadelphia TRACON
Sat 12:29:00 PM 40.3343 -75.3388 344° North  Level FlightAware Approximate
Sat 12:36:00 PM 40.7806 -75.4500 North  Level FlightAware Approximate
Sat 12:37:00 PM 40.8456 -75.4500 North  Level FlightAware Approximate
Sat 12:38:00 PM 40.9107 -75.4500 North  Level FlightAware Approximate
Sat 12:39:00 PM 40.9757 -75.4500 North  Level FlightAware Approximate
Sat 12:40:00 PM 41.0408 -75.4506 357° North  Level FlightAware Approximate
Sat 12:41:00 PM 41.1057 -75.4556 357° North  Level FlightAware Approximate
Sat 12:42:00 PM 41.1707 -75.4605 357° North  Level FlightAware Approximate
Sat 12:43:00 PM 41.2356 -75.4656 357° North  Level FlightAware Approximate
Sat 12:44:00 PM 41.3007 -75.4667 North  Level FlightAware Approximate
Sat 12:45:00 PM 41.3657 -75.4667 North  Level FlightAware Approximate
Sat 12:46:00 PM 41.4308 -75.4667 North  Level FlightAware Approximate
Sat 12:47:00 PM 41.4901 -75.4900 323° Northwest  Level FlightAware Approximate
Sat 12:48:00 PM 41.5422 -75.5419 323° Northwest  Level FlightAware Approximate
Sat 12:49:00 PM 41.5943 -75.5940 323° Northwest  Level FlightAware Approximate
Sat 12:50:00 PM 41.6464 -75.6462 323° Northwest  Level FlightAware Approximate
Sat 12:51:00 PM 41.6984 -75.6984 323° Northwest  Level FlightAware Approximate
Sat 12:52:00 PM 41.7513 -75.7491 325° Northwest  Level FlightAware Approximate
Sat 12:53:00 PM 41.8046 -75.7991 325° Northwest  Level FlightAware Approximate
Sat 12:54:00 PM 41.8579 -75.8493 325° Northwest  Level FlightAware Approximate
Sat 12:55:00 PM 41.9112 -75.8994 325° Northwest  Level FlightAware Approximate
Sat 12:56:00 PM 41.9644 -75.9497 325° Northwest  Level FlightAware Approximate
Sat 12:57:00 PM 42.0173 -76.0006 323° Northwest  Level FlightAware Approximate
Sat 12:58:00 PM 42.0696 -76.0529 323° Northwest  Level FlightAware Approximate
Sat 12:59:00 PM 42.1218 -76.1051 323° Northwest  Level FlightAware Approximate
Sat 01:00:00 PM 42.1542 -76.0958 37° Northeast  Level FlightAware Approximate
Sat 01:01:00 PM 42.1902 -76.0245 62° Northeast  Level FlightAware Approximate
Sat 01:02:00 PM 42.2000 -75.9667 90° East  Level FlightAware Approximate

Login

Don't have an account? Register now (free) for customized features, flight alerts, and more!